Time;durP1;ratioP1;P1;durP2;ratioP2;P2;SDS_P1;SDS_P2;PMS_P1;PMS_P2;Temp;Humidity;BMP_temperature;BMP_pressure;BME280_temperature;BME280_humidity;BME280_pressure;Samples;Min_cycle;Max_cycle;Signal;HPM_P1;HPM_P2
2023/08/29 00:01:16;;;;;;;;;;;;;;;;;;5136096;27;847;-63
2023/08/29 00:03:42;;;;;;;;;;;;;;;;;;5136785;27;1110;-63
2023/08/29 00:06:07;;;;;;;;;;;;;;;;;;5136774;27;836;-63
2023/08/29 00:08:33;;;;;;;;;;;;;;;;;;5136166;27;910;-62
2023/08/29 00:10:59;;;;;;;;;;;;;;;;;;5136879;27;908;-63
2023/08/29 00:13:24;;;;;;;;;;;;;;;;;;5136436;27;998;-63
2023/08/29 00:15:50;;;;;;;;;;;;;;;;;;5136174;27;1901;-63
2023/08/29 00:18:15;;;;;;;;;;;;;;;;;;5135841;27;911;-63
2023/08/29 00:20:40;;;;;;;;;;;;;;;;;;5136039;27;1144;-62
2023/08/29 00:23:09;;;;;;;;;;;;;;;;;;5136060;27;1002;-63
2023/08/29 00:25:34;;;;;;;;;;;;;;;;;;5116295;27;797;-63
2023/08/29 00:27:59;;;;;;;;;;;;;;;;;;5135308;27;879;-63
2023/08/29 00:30:24;;;;;;;;;;;;;;;;;;5135046;27;966;-63
2023/08/29 00:32:50;;;;;;;;;;;;;;;;;;5134967;27;869;-63
2023/08/29 00:35:15;;;;;;;;;;;;;;;;;;5134114;27;1961;-62
2023/08/29 00:37:40;;;;;;;;;;;;;;;;;;5134788;27;828;-63
2023/08/29 00:40:07;;;;;;;;;;;;;;;;;;5134526;27;1292;-63
2023/08/29 00:42:32;;;;;;;;;;;;;;;;;;5115295;27;1225;-63
2023/08/29 00:44:58;;;;;;;;;;;;;;;;;;5134525;27;832;-63
2023/08/29 00:47:23;;;;;;;;;;;;;;;;;;5134533;27;1004;-63
2023/08/29 00:49:48;;;;;;;;;;;;;;;;;;5133916;27;1229;-63
2023/08/29 00:52:13;;;;;;;;;;;;;;;;;;5145890;27;1167;-62
2023/08/29 00:54:39;;;;;;;;;;;;;;;;;;5136413;27;1905;-63
2023/08/29 00:57:04;;;;;;;;;;;;;;;;;;5134227;27;1309;-63
2023/08/29 00:59:29;;;;;;;;;;;;;;;;;;5134848;27;882;-62
2023/08/29 01:01:55;;;;;;;;;;;;;;;;;;5135312;27;899;-62
2023/08/29 01:04:20;;;;;;;;;;;;;;;;;;5114915;27;955;-63
2023/08/29 01:06:46;;;;;;;;;;;;;;;;;;5134230;27;904;-62
2023/08/29 01:09:11;;;;;;;;;;;;;;;;;;5115679;27;923;-63
2023/08/29 01:11:51;;;;;;;;;;;;;;;;;;5133318;27;974;-63
2023/08/29 01:14:22;;;;;;;;;;;;;;;;;;5134129;27;1890;-63
2023/08/29 01:17:08;;;;;;;;;;;;;;;;;;5133662;27;1104;-63
2023/08/29 01:19:34;;;;;;;;;;;;;;;;;;5132413;27;1184;-63
2023/08/29 01:22:18;;;;;;;;;;;;;;;;;;5133730;27;852;-63
2023/08/29 01:24:43;;;;;;;;;;;;;;;;;;5133404;27;1209;-63
2023/08/29 01:27:09;;;;;;;;;;;;;;;;;;5133977;27;867;-63
2023/08/29 01:29:35;;;;;;;;;;;;;;;;;;5133116;27;816;-63
2023/08/29 01:32:01;;;;;;;;;;;;;;;;;;5133544;27;852;-63
2023/08/29 01:34:26;;;;;;;;;;;;;;;;;;5133792;27;1901;-62
2023/08/29 01:36:52;;;;;;;;;;;;;;;;;;5115823;27;1210;-63
2023/08/29 01:39:17;;;;;;;;;;;;;;;;;;5133384;27;864;-63
2023/08/29 01:41:42;;;;;;;;;;;;;;;;;;5115544;27;812;-63
2023/08/29 01:44:08;;;;;;;;;;;;;;;;;;5133619;27;975;-63
2023/08/29 01:46:33;;;;;;;;;;;;;;;;;;5133118;27;974;-63
2023/08/29 01:49:00;;;;;;;;;;;;;;;;;;5115641;27;836;-63
2023/08/29 01:51:25;;;;;;;;;;;;;;;;;;5133605;27;860;-63
2023/08/29 01:53:51;;;;;;;;;;;;;;;;;;5133552;27;946;-63
2023/08/29 01:56:19;;;;;;;;;;;;;;;;;;5114633;27;1906;-63
2023/08/29 01:58:45;;;;;;;;;;;;;;;;;;5132806;27;839;-63
2023/08/29 02:01:11;;;;;;;;;;;;;;;;;;5132949;27;918;-63
2023/08/29 02:03:36;;;;;;;;;;;;;;;;;;5132491;27;938;-63
2023/08/29 02:06:01;;;;;;;;;;;;;;;;;;5114342;27;1432;-63
2023/08/29 02:08:26;;;;;;;;;;;;;;;;;;5113880;27;985;-63
2023/08/29 02:10:52;;;;;;;;;;;;;;;;;;5132402;27;769;-63
2023/08/29 02:13:18;;;;;;;;;;;;;;;;;;5114048;27;931;-63
2023/08/29 02:15:43;;;;;;;;;;;;;;;;;;5132744;27;1977;-63
2023/08/29 02:18:09;;;;;;;;;;;;;;;;;;5133089;27;1090;-62
2023/08/29 02:20:35;;;;;;;;;;;;;;;;;;5132662;27;826;-63
2023/08/29 02:23:01;;;;;;;;;;;;;;;;;;5132694;27;852;-63
2023/08/29 02:25:26;;;;;;;;;;;;;;;;;;5132440;27;909;-63
2023/08/29 02:27:51;;;;;;;;;;;;;;;;;;5133151;27;852;-63
2023/08/29 02:30:16;;;;;;;;;;;;;;;;;;5132332;27;875;-63
2023/08/29 02:32:42;;;;;;;;;;;;;;;;;;5133782;27;832;-63
2023/08/29 02:35:07;;;;;;;;;;;;;;;;;;5133812;27;1971;-63
2023/08/29 02:37:34;;;;;;;;;;;;;;;;;;5133648;27;1229;-63
2023/08/29 02:40:00;;;;;;;;;;;;;;;;;;5133338;27;846;-63
2023/08/29 02:42:25;;;;;;;;;;;;;;;;;;5133037;27;857;-63
2023/08/29 02:44:50;;;;;;;;;;;;;;;;;;5132596;27;836;-63
2023/08/29 02:47:15;;;;;;;;;;;;;;;;;;5131996;27;867;-63
2023/08/29 02:49:41;;;;;;;;;;;;;;;;;;5132409;27;788;-63
2023/08/29 02:52:06;;;;;;;;;;;;;;;;;;5131782;27;1013;-63
2023/08/29 02:54:31;;;;;;;;;;;;;;;;;;5131473;27;1924;-63
2023/08/29 02:56:56;;;;;;;;;;;;;;;;;;5131994;27;887;-63
2023/08/29 02:59:22;;;;;;;;;;;;;;;;;;5132592;27;1264;-63
2023/08/29 03:01:48;;;;;;;;;;;;;;;;;;5149915;27;1217;-63
2023/08/29 03:04:13;;;;;;;;;;;;;;;;;;5151353;27;860;-63
2023/08/29 03:06:38;;;;;;;;;;;;;;;;;;5133913;27;891;-63
2023/08/29 03:09:04;;;;;;;;;;;;;;;;;;5153076;27;997;-63
2023/08/29 03:11:29;;;;;;;;;;;;;;;;;;5152186;27;864;-63
2023/08/29 03:13:54;;;;;;;;;;;;;;;;;;5152231;27;910;-63
2023/08/29 03:16:20;;;;;;;;;;;;;;;;;;5151480;27;2256;-63
2023/08/29 03:18:45;;;;;;;;;;;;;;;;;;5152889;27;917;-63
2023/08/29 03:21:10;;;;;;;;;;;;;;;;;;5152693;27;931;-63
2023/08/29 03:23:36;;;;;;;;;;;;;;;;;;5152333;27;1091;-63
2023/08/29 03:26:02;;;;;;;;;;;;;;;;;;5152368;27;931;-63
2023/08/29 03:28:27;;;;;;;;;;;;;;;;;;5133462;27;872;-63
2023/08/29 03:30:53;;;;;;;;;;;;;;;;;;5153119;27;930;-63
2023/08/29 03:33:18;;;;;;;;;;;;;;;;;;5133434;27;1757;-63
2023/08/29 03:35:43;;;;;;;;;;;;;;;;;;5152789;27;1979;-63
2023/08/29 03:38:09;;;;;;;;;;;;;;;;;;5152164;27;867;-63
2023/08/29 03:40:35;;;;;;;;;;;;;;;;;;5151994;27;839;-63
2023/08/29 03:43:00;;;;;;;;;;;;;;;;;;5133309;27;899;-63
2023/08/29 03:45:25;;;;;;;;;;;;;;;;;;5151962;27;926;-63
2023/08/29 03:47:51;;;;;;;;;;;;;;;;;;5133047;27;1037;-63
2023/08/29 03:50:16;;;;;;;;;;;;;;;;;;5151973;27;828;-62
2023/08/29 03:52:41;;;;;;;;;;;;;;;;;;5151362;27;918;-63
2023/08/29 03:55:06;;;;;;;;;;;;;;;;;;5133362;27;1968;-63
2023/08/29 03:57:32;;;;;;;;;;;;;;;;;;5151148;27;859;-63
2023/08/29 03:59:57;;;;;;;;;;;;;;;;;;5152050;27;832;-63
2023/08/29 04:02:23;;;;;;;;;;;;;;;;;;5133423;27;851;-63
2023/08/29 04:04:50;;;;;;;;;;;;;;;;;;5152042;27;821;-63
2023/08/29 04:07:16;;;;;;;;;;;;;;;;;;5151813;27;1025;-63
2023/08/29 04:09:41;;;;;;;;;;;;;;;;;;5151744;27;1118;-63
2023/08/29 04:12:08;;;;;;;;;;;;;;;;;;5151554;27;1219;-63
2023/08/29 04:14:33;;;;;;;;;;;;;;;;;;5151595;27;1984;-62
2023/08/29 04:16:58;;;;;;;;;;;;;;;;;;5152035;27;1023;-63
2023/08/29 04:19:24;;;;;;;;;;;;;;;;;;5152666;27;952;-63
2023/08/29 04:21:49;;;;;;;;;;;;;;;;;;5152673;27;844;-63
2023/08/29 04:24:14;;;;;;;;;;;;;;;;;;5152123;27;761;-63
2023/08/29 04:26:40;;;;;;;;;;;;;;;;;;5152705;27;788;-63
2023/08/29 04:29:05;;;;;;;;;;;;;;;;;;5152238;27;828;-63
2023/08/29 04:31:30;;;;;;;;;;;;;;;;;;5151795;27;915;-62
2023/08/29 04:33:56;;;;;;;;;;;;;;;;;;5133113;27;824;-63
2023/08/29 04:36:21;;;;;;;;;;;;;;;;;;5151307;27;1902;-63
2023/08/29 04:38:47;;;;;;;;;;;;;;;;;;5153511;27;938;-63
2023/08/29 04:41:13;;;;;;;;;;;;;;;;;;5119618;27;1668;-62
2023/08/29 04:43:41;;;;;;;;;;;;;;;;;;5153312;27;1146;-63
2023/08/29 04:46:09;;;;;;;;;;;;;;;;;;5151011;27;1142;-62
2023/08/29 04:48:34;;;;;;;;;;;;;;;;;;5151227;27;1150;-62
2023/08/29 04:51:00;;;;;;;;;;;;;;;;;;5153758;27;1281;-63
2023/08/29 04:53:25;;;;;;;;;;;;;;;;;;5155320;27;915;-63
2023/08/29 04:55:57;;;;;;;;;;;;;;;;;;5155236;27;1893;-63
2023/08/29 04:58:22;;;;;;;;;;;;;;;;;;5136928;27;1061;-62
2023/08/29 05:00:50;;;;;;;;;;;;;;;;;;5155286;27;1157;-63
2023/08/29 05:03:15;;;;;;;;;;;;;;;;;;5155478;27;808;-63
2023/08/29 05:05:44;;;;;;;;;;;;;;;;;;5154970;27;1057;-63
2023/08/29 05:08:09;;;;;;;;;;;;;;;;;;5155503;27;856;-62
2023/08/29 05:10:35;;;;;;;;;;;;;;;;;;5155130;27;1078;-63
2023/08/29 05:13:00;;;;;;;;;;;;;;;;;;5154557;27;1376;-62
2023/08/29 05:15:25;;;;;;;;;;;;;;;;;;5154601;27;1889;-63
2023/08/29 05:17:50;;;;;;;;;;;;;;;;;;5154726;27;1181;-63
2023/08/29 05:20:16;;;;;;;;;;;;;;;;;;5136568;27;907;-63
2023/08/29 05:22:41;;;;;;;;;;;;;;;;;;5154254;27;820;-62
2023/08/29 05:25:06;;;;;;;;;;;;;;;;;;5154632;27;868;-63
2023/08/29 05:27:32;;;;;;;;;;;;;;;;;;5153996;27;926;-63
2023/08/29 05:29:57;;;;;;;;;;;;;;;;;;5154548;27;843;-62
2023/08/29 05:32:22;;;;;;;;;;;;;;;;;;5135354;27;835;-63
2023/08/29 05:34:48;;;;;;;;;;;;;;;;;;5154337;27;1971;-63
2023/08/29 05:37:13;;;;;;;;;;;;;;;;;;5154579;27;878;-63
2023/08/29 05:39:39;;;;;;;;;;;;;;;;;;5135252;27;934;-63
2023/08/29 05:42:04;;;;;;;;;;;;;;;;;;5154428;27;764;-63
2023/08/29 05:44:29;;;;;;;;;;;;;;;;;;5154099;27;943;-63
2023/08/29 05:46:55;;;;;;;;;;;;;;;;;;5154246;27;931;-63
2023/08/29 05:49:20;;;;;;;;;;;;;;;;;;5153326;27;1037;-63
2023/08/29 05:51:45;;;;;;;;;;;;;;;;;;5154480;27;784;-63
2023/08/29 05:54:10;;;;;;;;;;;;;;;;;;5154319;27;1905;-63
2023/08/29 05:56:37;;;;;;;;;;;;;;;;;;5153547;27;831;-63
2023/08/29 05:59:02;;;;;;;;;;;;;;;;;;5153877;27;792;-63
2023/08/29 06:01:27;;;;;;;;;;;;;;;;;;5135114;27;903;-62
2023/08/29 06:03:53;;;;;;;;;;;;;;;;;;5154115;27;974;-63
2023/08/29 06:06:19;;;;;;;;;;;;;;;;;;5153612;27;776;-63
2023/08/29 06:08:46;;;;;;;;;;;;;;;;;;5153786;27;871;-62
2023/08/29 06:11:12;;;;;;;;;;;;;;;;;;5154769;27;773;-63
2023/08/29 06:13:37;;;;;;;;;;;;;;;;;;5153870;27;1000;-63
2023/08/29 06:16:03;;;;;;;;;;;;;;;;;;5135519;27;1902;-63
2023/08/29 06:18:28;;;;;;;;;;;;;;;;;;5153343;27;1230;-63
2023/08/29 06:20:54;;;;;;;;;;;;;;;;;;5154612;27;927;-63
2023/08/29 06:23:19;;;;;;;;;;;;;;;;;;5153617;27;812;-63
2023/08/29 06:25:44;;;;;;;;;;;;;;;;;;5154467;27;922;-63
2023/08/29 06:28:10;;;;;;;;;;;;;;;;;;5154265;27;898;-63
2023/08/29 06:30:35;;;;;;;;;;;;;;;;;;5153150;27;903;-63
2023/08/29 06:33:01;;;;;;;;;;;;;;;;;;5154254;27;867;-63
2023/08/29 06:35:26;;;;;;;;;;;;;;;;;;5134212;27;1917;-63
2023/08/29 06:37:54;;;;;;;;;;;;;;;;;;5153530;27;911;-63
2023/08/29 06:40:20;;;;;;;;;;;;;;;;;;5153935;27;859;-63
2023/08/29 06:42:45;;;;;;;;;;;;;;;;;;5153269;27;1087;-63
2023/08/29 06:45:10;;;;;;;;;;;;;;;;;;5153385;27;772;-63
2023/08/29 06:47:36;;;;;;;;;;;;;;;;;;5153188;27;856;-62
2023/08/29 06:50:01;;;;;;;;;;;;;;;;;;5153831;27;859;-63
2023/08/29 06:52:27;;;;;;;;;;;;;;;;;;5152937;27;941;-63
2023/08/29 06:54:52;;;;;;;;;;;;;;;;;;5153682;27;1986;-63
2023/08/29 06:57:17;;;;;;;;;;;;;;;;;;5152709;27;903;-63
2023/08/29 06:59:43;;;;;;;;;;;;;;;;;;5133792;27;1780;-63
2023/08/29 07:02:08;;;;;;;;;;;;;;;;;;5152375;27;812;-63
2023/08/29 07:04:34;;;;;;;;;;;;;;;;;;5152852;27;859;-63
2023/08/29 07:06:59;;;;;;;;;;;;;;;;;;5134147;27;808;-63
2023/08/29 07:09:27;;;;;;;;;;;;;;;;;;5152243;27;812;-63
2023/08/29 07:11:52;;;;;;;;;;;;;;;;;;5152992;27;855;-63
2023/08/29 07:14:17;;;;;;;;;;;;;;;;;;5151842;27;1964;-63
2023/08/29 07:16:43;;;;;;;;;;;;;;;;;;5151794;27;1274;-63
2023/08/29 07:19:10;;;;;;;;;;;;;;;;;;5152223;27;887;-63
2023/08/29 07:21:35;;;;;;;;;;;;;;;;;;5152132;27;887;-63
2023/08/29 07:24:01;;;;;;;;;;;;;;;;;;5152272;27;742;-63
2023/08/29 07:26:26;;;;;;;;;;;;;;;;;;5152029;27;844;-63
2023/08/29 07:28:51;;;;;;;;;;;;;;;;;;5152564;27;906;-63
2023/08/29 07:31:18;;;;;;;;;;;;;;;;;;5152066;27;902;-63
2023/08/29 07:33:43;;;;;;;;;;;;;;;;;;5152036;27;828;-62
2023/08/29 07:36:08;;;;;;;;;;;;;;;;;;5152949;27;1914;-62
2023/08/29 07:38:34;;;;;;;;;;;;;;;;;;5133472;27;902;-62
2023/08/29 07:41:00;;;;;;;;;;;;;;;;;;5152389;27;816;-62
2023/08/29 07:43:25;;;;;;;;;;;;;;;;;;5152004;27;854;-62
2023/08/29 07:45:52;;;;;;;;;;;;;;;;;;5151082;27;1307;-62
2023/08/29 07:48:18;;;;;;;;;;;;;;;;;;5149062;27;1221;-63
2023/08/29 07:50:44;;;;;;;;;;;;;;;;;;5149422;27;1173;-62
2023/08/29 07:53:09;;;;;;;;;;;;;;;;;;5131761;27;1292;-62
2023/08/29 07:55:34;;;;;;;;;;;;;;;;;;5109050;27;2397;-61
2023/08/29 07:58:01;;;;;;;;;;;;;;;;;;5113454;28;1206;-61
2023/08/29 08:00:28;;;;;;;;;;;;;;;;;;5131743;28;851;-61
2023/08/29 08:02:53;;;;;;;;;;;;;;;;;;5114138;28;1541;-62
2023/08/29 08:05:18;;;;;;;;;;;;;;;;;;5131835;28;896;-62
2023/08/29 08:07:44;;;;;;;;;;;;;;;;;;5132485;28;884;-62
2023/08/29 08:10:10;;;;;;;;;;;;;;;;;;5133250;28;844;-62
2023/08/29 08:12:37;;;;;;;;;;;;;;;;;;5132183;27;891;-61
2023/08/29 08:15:04;;;;;;;;;;;;;;;;;;5136113;27;1902;-61
2023/08/29 08:17:29;;;;;;;;;;;;;;;;;;5114231;28;1676;-61
2023/08/29 08:19:55;;;;;;;;;;;;;;;;;;5115861;28;907;-64
2023/08/29 08:22:20;;;;;;;;;;;;;;;;;;5114469;28;1122;-61
2023/08/29 08:24:46;;;;;;;;;;;;;;;;;;5115175;28;915;-61
2023/08/29 08:27:11;;;;;;;;;;;;;;;;;;5114891;28;821;-61
2023/08/29 08:29:36;;;;;;;;;;;;;;;;;;5114435;28;1089;-62
2023/08/29 08:32:01;;;;;;;;;;;;;;;;;;5114334;28;825;-61
2023/08/29 08:34:27;;;;;;;;;;;;;;;;;;5113896;28;1963;-61
2023/08/29 08:36:52;;;;;;;;;;;;;;;;;;5114592;28;777;-63
2023/08/29 08:39:18;;;;;;;;;;;;;;;;;;5114182;28;958;-63
2023/08/29 08:41:43;;;;;;;;;;;;;;;;;;5113712;28;893;-63
2023/08/29 08:44:09;;;;;;;;;;;;;;;;;;5114489;28;762;-63
2023/08/29 08:46:35;;;;;;;;;;;;;;;;;;5114055;28;840;-63
2023/08/29 08:49:01;;;;;;;;;;;;;;;;;;5114236;28;974;-63
2023/08/29 08:51:29;;;;;;;;;;;;;;;;;;5113845;28;986;-63
2023/08/29 08:53:55;;;;;;;;;;;;;;;;;;5114396;28;971;-62
2023/08/29 08:56:21;;;;;;;;;;;;;;;;;;5112905;28;1894;-63
2023/08/29 08:58:46;;;;;;;;;;;;;;;;;;5113680;28;899;-63
2023/08/29 09:01:12;;;;;;;;;;;;;;;;;;5113038;28;895;-63
2023/08/29 09:03:38;;;;;;;;;;;;;;;;;;5112335;28;1010;-63
2023/08/29 09:06:04;;;;;;;;;;;;;;;;;;5112914;28;868;-63
2023/08/29 09:08:31;;;;;;;;;;;;;;;;;;5113036;28;920;-63
2023/08/29 09:10:59;;;;;;;;;;;;;;;;;;5114524;28;935;-63
2023/08/29 09:13:24;;;;;;;;;;;;;;;;;;5113167;28;1182;-63
2023/08/29 09:15:49;;;;;;;;;;;;;;;;;;5114314;28;1968;-63
2023/08/29 09:18:22;;;;;;;;;;;;;;;;;;5127466;27;1135;-62
2023/08/29 09:20:50;;;;;;;;;;;;;;;;;;5134220;27;1005;-62
2023/08/29 09:23:22;;;;;;;;;;;;;;;;;;5116038;27;1308;-62
2023/08/29 09:25:58;;;;;;;;;;;;;;;;;;5133501;27;899;-62
2023/08/29 09:28:27;;;;;;;;;;;;;;;;;;5115806;27;649;-62
2023/08/29 09:30:53;;;;;;;;;;;;;;;;;;5134503;27;918;-62
2023/08/29 09:33:20;;;;;;;;;;;;;;;;;;5134047;27;910;-62
2023/08/29 09:35:45;;;;;;;;;;;;;;;;;;5134166;27;1961;-62
2023/08/29 09:38:11;;;;;;;;;;;;;;;;;;5134120;27;920;-62
2023/08/29 09:40:44;;;;;;;;;;;;;;;;;;5133138;27;954;-62
2023/08/29 09:43:09;;;;;;;;;;;;;;;;;;5134141;27;1206;-62
2023/08/29 09:45:37;;;;;;;;;;;;;;;;;;5114677;27;1487;-62
2023/08/29 09:48:06;;;;;;;;;;;;;;;;;;5133667;27;846;-62
2023/08/29 09:50:32;;;;;;;;;;;;;;;;;;5134053;27;990;-62
2023/08/29 09:52:58;;;;;;;;;;;;;;;;;;5135056;27;923;-62
2023/08/29 09:55:25;;;;;;;;;;;;;;;;;;5133534;27;1929;-62
2023/08/29 09:57:52;;;;;;;;;;;;;;;;;;5134454;27;828;-62
2023/08/29 10:00:19;;;;;;;;;;;;;;;;;;5134017;27;931;-62
2023/08/29 10:02:45;;;;;;;;;;;;;;;;;;5115360;27;860;-62
2023/08/29 10:05:12;;;;;;;;;;;;;;;;;;5134116;27;921;-62
2023/08/29 10:07:40;;;;;;;;;;;;;;;;;;5132691;27;1077;-62
2023/08/29 10:10:07;;;;;;;;;;;;;;;;;;5133092;27;825;-62
2023/08/29 10:12:33;;;;;;;;;;;;;;;;;;5132651;27;871;-62
2023/08/29 10:14:59;;;;;;;;;;;;;;;;;;5132931;27;1957;-62
2023/08/29 10:17:25;;;;;;;;;;;;;;;;;;5132544;27;1396;-62
2023/08/29 10:19:51;;;;;;;;;;;;;;;;;;5113374;27;1170;-62
2023/08/29 10:22:16;;;;;;;;;;;;;;;;;;5130035;27;1209;-62
2023/08/29 10:24:44;;;;;;;;;;;;;;;;;;5150217;27;1123;-62
2023/08/29 10:27:10;;;;;;;;;;;;;;;;;;5151273;27;1193;-62
2023/08/29 10:29:35;;;;;;;;;;;;;;;;;;5151828;27;1150;-62
2023/08/29 10:32:01;;;;;;;;;;;;;;;;;;5153065;27;931;-62
2023/08/29 10:34:29;;;;;;;;;;;;;;;;;;5152663;27;1913;-62
2023/08/29 10:36:56;;;;;;;;;;;;;;;;;;5152200;27;1006;-62
2023/08/29 10:39:21;;;;;;;;;;;;;;;;;;5153068;27;902;-62
2023/08/29 10:41:48;;;;;;;;;;;;;;;;;;5152190;27;907;-62
2023/08/29 10:44:22;;;;;;;;;;;;;;;;;;5152629;27;871;-62
2023/08/29 10:46:51;;;;;;;;;;;;;;;;;;5152094;27;994;-62
2023/08/29 10:49:16;;;;;;;;;;;;;;;;;;5152840;27;816;-62
2023/08/29 10:51:43;;;;;;;;;;;;;;;;;;5152471;27;903;-62
2023/08/29 10:54:11;;;;;;;;;;;;;;;;;;5153317;27;820;-61
2023/08/29 10:56:40;;;;;;;;;;;;;;;;;;5152101;27;1889;-62
2023/08/29 10:59:05;;;;;;;;;;;;;;;;;;5152905;27;888;-61
2023/08/29 11:01:31;;;;;;;;;;;;;;;;;;5152028;27;896;-62
2023/08/29 11:04:00;;;;;;;;;;;;;;;;;;5152894;27;881;-61
2023/08/29 11:06:27;;;;;;;;;;;;;;;;;;5152782;27;835;-62
2023/08/29 11:09:11;;;;;;;;;;;;;;;;;;5133530;27;1330;-62
2023/08/29 11:11:36;;;;;;;;;;;;;;;;;;5133346;27;1389;-62
2023/08/29 11:14:06;;;;;;;;;;;;;;;;;;5144361;27;1162;-62
2023/08/29 11:16:35;;;;;;;;;;;;;;;;;;5127562;27;1913;-61
2023/08/29 11:19:03;;;;;;;;;;;;;;;;;;5129442;27;1253;-61
2023/08/29 11:21:30;;;;;;;;;;;;;;;;;;5113090;27;966;-61
2023/08/29 11:23:57;;;;;;;;;;;;;;;;;;5132437;27;1406;-61
2023/08/29 11:26:23;;;;;;;;;;;;;;;;;;5113364;27;1203;-61
2023/08/29 11:28:49;;;;;;;;;;;;;;;;;;5131125;28;867;-61
2023/08/29 11:31:18;;;;;;;;;;;;;;;;;;5131600;28;987;-61
2023/08/29 11:33:43;;;;;;;;;;;;;;;;;;5112467;28;1671;-61
2023/08/29 11:36:09;;;;;;;;;;;;;;;;;;5131640;28;1968;-62
2023/08/29 11:38:35;;;;;;;;;;;;;;;;;;5130972;28;851;-62
2023/08/29 11:41:02;;;;;;;;;;;;;;;;;;5131833;28;873;-62
2023/08/29 11:43:28;;;;;;;;;;;;;;;;;;5131385;28;872;-62
2023/08/29 11:46:01;;;;;;;;;;;;;;;;;;5130959;28;882;-62
2023/08/29 11:48:28;;;;;;;;;;;;;;;;;;5100345;27;737;-62
2023/08/29 11:51:00;;;;;;;;;;;;;;;;;;5136671;27;867;-62
2023/08/29 11:53:33;;;;;;;;;;;;;;;;;;5132592;27;1238;-62
2023/08/29 11:55:59;;;;;;;;;;;;;;;;;;5136013;27;1938;-62
2023/08/29 11:58:28;;;;;;;;;;;;;;;;;;5136225;27;911;-62
2023/08/29 12:00:54;;;;;;;;;;;;;;;;;;5117635;27;936;-62
2023/08/29 12:03:25;;;;;;;;;;;;;;;;;;5136350;27;836;-62
2023/08/29 12:05:50;;;;;;;;;;;;;;;;;;5135856;27;804;-61
2023/08/29 12:08:15;;;;;;;;;;;;;;;;;;5135911;27;831;-62
2023/08/29 12:10:51;;;;;;;;;;;;;;;;;;5135407;27;899;-62
2023/08/29 12:13:16;;;;;;;;;;;;;;;;;;5136002;27;968;-62
2023/08/29 12:15:42;;;;;;;;;;;;;;;;;;5134944;27;1897;-62
2023/08/29 12:18:07;;;;;;;;;;;;;;;;;;5134759;27;1269;-62
2023/08/29 12:20:35;;;;;;;;;;;;;;;;;;5134263;27;777;-61
2023/08/29 12:23:00;;;;;;;;;;;;;;;;;;5116222;27;1407;-61
2023/08/29 12:25:26;;;;;;;;;;;;;;;;;;5135570;27;978;-62
2023/08/29 12:27:52;;;;;;;;;;;;;;;;;;5135386;27;836;-62
2023/08/29 12:30:17;;;;;;;;;;;;;;;;;;5133700;27;1225;-61
2023/08/29 12:32:43;;;;;;;;;;;;;;;;;;5147760;27;1214;-61
2023/08/29 12:35:08;;;;;;;;;;;;;;;;;;5154136;27;1909;-62
2023/08/29 12:37:33;;;;;;;;;;;;;;;;;;5155303;27;978;-62
2023/08/29 12:39:59;;;;;;;;;;;;;;;;;;5155249;27;781;-62
2023/08/29 12:42:24;;;;;;;;;;;;;;;;;;5155808;27;800;-61
2023/08/29 12:44:50;;;;;;;;;;;;;;;;;;5154470;27;1225;-61
2023/08/29 12:47:15;;;;;;;;;;;;;;;;;;5156303;27;852;-61
2023/08/29 12:49:40;;;;;;;;;;;;;;;;;;5155238;27;918;-61
2023/08/29 12:52:06;;;;;;;;;;;;;;;;;;5156620;27;832;-62
2023/08/29 12:54:33;;;;;;;;;;;;;;;;;;5154679;27;1905;-62
2023/08/29 12:56:59;;;;;;;;;;;;;;;;;;5153354;27;928;-62
2023/08/29 12:59:24;;;;;;;;;;;;;;;;;;5134263;27;1079;-62
2023/08/29 13:01:50;;;;;;;;;;;;;;;;;;5152829;27;886;-62
2023/08/29 13:04:16;;;;;;;;;;;;;;;;;;5153547;27;949;-62
2023/08/29 13:06:41;;;;;;;;;;;;;;;;;;5152486;27;811;-62
2023/08/29 13:09:07;;;;;;;;;;;;;;;;;;5153171;27;839;-61
2023/08/29 13:11:32;;;;;;;;;;;;;;;;;;5154575;27;1008;-62
2023/08/29 13:13:58;;;;;;;;;;;;;;;;;;5154432;27;891;-61
2023/08/29 13:16:33;;;;;;;;;;;;;;;;;;5154802;27;1905;-61
2023/08/29 13:18:58;;;;;;;;;;;;;;;;;;5154129;27;1368;-61
2023/08/29 13:21:24;;;;;;;;;;;;;;;;;;5154539;27;1006;-61
2023/08/29 13:23:49;;;;;;;;;;;;;;;;;;5154189;27;1067;-63
2023/08/29 13:26:15;;;;;;;;;;;;;;;;;;5155201;27;950;-61
2023/08/29 13:28:40;;;;;;;;;;;;;;;;;;5154106;27;895;-61
2023/08/29 13:31:07;;;;;;;;;;;;;;;;;;5154639;27;930;-63
2023/08/29 13:33:32;;;;;;;;;;;;;;;;;;5154338;27;1106;-61
2023/08/29 13:35:57;;;;;;;;;;;;;;;;;;5153684;27;1919;-62
2023/08/29 13:38:23;;;;;;;;;;;;;;;;;;5154739;27;864;-62
2023/08/29 13:40:51;;;;;;;;;;;;;;;;;;5135079;27;955;-62
2023/08/29 13:43:16;;;;;;;;;;;;;;;;;;5153989;27;898;-62
2023/08/29 13:45:41;;;;;;;;;;;;;;;;;;5154080;27;796;-62
2023/08/29 13:48:07;;;;;;;;;;;;;;;;;;5154057;27;899;-62
2023/08/29 13:50:32;;;;;;;;;;;;;;;;;;5154095;27;1410;-62
2023/08/29 13:52:58;;;;;;;;;;;;;;;;;;5153584;27;832;-63
2023/08/29 13:55:23;;;;;;;;;;;;;;;;;;5154134;27;1976;-63
2023/08/29 13:57:48;;;;;;;;;;;;;;;;;;5153248;27;832;-63
2023/08/29 14:00:14;;;;;;;;;;;;;;;;;;5154334;27;863;-63
2023/08/29 14:02:39;;;;;;;;;;;;;;;;;;5154142;27;895;-62
2023/08/29 14:05:05;;;;;;;;;;;;;;;;;;5136034;27;816;-62
2023/08/29 14:07:30;;;;;;;;;;;;;;;;;;5154981;27;784;-63
2023/08/29 14:09:55;;;;;;;;;;;;;;;;;;5153841;27;930;-62
2023/08/29 14:12:20;;;;;;;;;;;;;;;;;;5154725;27;863;-62
2023/08/29 14:14:46;;;;;;;;;;;;;;;;;;5153562;27;1973;-61
2023/08/29 14:17:11;;;;;;;;;;;;;;;;;;5154814;27;1081;-62
2023/08/29 14:19:36;;;;;;;;;;;;;;;;;;5154506;27;1110;-62
2023/08/29 14:22:02;;;;;;;;;;;;;;;;;;5154133;27;1053;-62
2023/08/29 14:24:27;;;;;;;;;;;;;;;;;;5154171;27;931;-63
2023/08/29 14:26:53;;;;;;;;;;;;;;;;;;5153291;27;1065;-62
2023/08/29 14:29:18;;;;;;;;;;;;;;;;;;5153799;27;848;-63
2023/08/29 14:31:43;;;;;;;;;;;;;;;;;;5152875;27;911;-62
2023/08/29 14:34:08;;;;;;;;;;;;;;;;;;5152888;27;1010;-62
2023/08/29 14:36:34;;;;;;;;;;;;;;;;;;5153478;27;1909;-62
2023/08/29 14:38:59;;;;;;;;;;;;;;;;;;5134530;27;795;-62
2023/08/29 14:41:24;;;;;;;;;;;;;;;;;;5153456;27;1264;-64
2023/08/29 14:43:50;;;;;;;;;;;;;;;;;;5143503;27;1150;-65
2023/08/29 14:46:15;;;;;;;;;;;;;;;;;;5137550;27;1143;-65
2023/08/29 14:48:41;;;;;;;;;;;;;;;;;;5114523;27;1222;-66
2023/08/29 14:51:07;;;;;;;;;;;;;;;;;;5132666;27;1230;-67
2023/08/29 14:53:36;;;;;;;;;;;;;;;;;;5132868;27;797;-67
2023/08/29 14:56:04;;;;;;;;;;;;;;;;;;5132694;27;1902;-63
2023/08/29 14:58:31;;;;;;;;;;;;;;;;;;5133340;27;1130;-62
2023/08/29 15:00:56;;;;;;;;;;;;;;;;;;5132534;27;800;-64
2023/08/29 15:03:21;;;;;;;;;;;;;;;;;;5133460;27;902;-66
2023/08/29 15:05:53;;;;;;;;;;;;;;;;;;5132704;27;851;-64
2023/08/29 15:08:18;;;;;;;;;;;;;;;;;;5132657;27;922;-64
2023/08/29 15:10:43;;;;;;;;;;;;;;;;;;5130401;27;895;-64
2023/08/29 15:13:08;;;;;;;;;;;;;;;;;;5111357;27;2373;-64
2023/08/29 15:15:35;;;;;;;;;;;;;;;;;;5131250;27;1928;-64
2023/08/29 15:18:01;;;;;;;;;;;;;;;;;;5131593;27;1210;-64
2023/08/29 15:20:28;;;;;;;;;;;;;;;;;;5132511;27;871;-64
2023/08/29 15:22:53;;;;;;;;;;;;;;;;;;5112489;27;907;-64
2023/08/29 15:25:18;;;;;;;;;;;;;;;;;;5131770;27;899;-64
2023/08/29 15:27:44;;;;;;;;;;;;;;;;;;5131397;27;859;-64
2023/08/29 15:30:09;;;;;;;;;;;;;;;;;;5113475;28;891;-64
2023/08/29 15:32:34;;;;;;;;;;;;;;;;;;5131891;28;1525;-64
2023/08/29 15:35:05;;;;;;;;;;;;;;;;;;5130586;28;1913;-64
2023/08/29 15:37:30;;;;;;;;;;;;;;;;;;5131743;28;836;-64
2023/08/29 15:39:56;;;;;;;;;;;;;;;;;;5131015;28;907;-64
2023/08/29 15:42:21;;;;;;;;;;;;;;;;;;5131664;28;757;-64
2023/08/29 15:44:46;;;;;;;;;;;;;;;;;;5131050;28;1018;-64
2023/08/29 15:47:11;;;;;;;;;;;;;;;;;;5132760;28;848;-64
2023/08/29 15:49:37;;;;;;;;;;;;;;;;;;5132099;28;839;-64
2023/08/29 15:52:03;;;;;;;;;;;;;;;;;;5131926;28;1010;-64
2023/08/29 15:54:29;;;;;;;;;;;;;;;;;;5132951;28;824;-64
2023/08/29 15:56:54;;;;;;;;;;;;;;;;;;5131632;28;824;-64
2023/08/29 15:59:23;;;;;;;;;;;;;;;;;;5132704;28;856;-64
2023/08/29 16:01:48;;;;;;;;;;;;;;;;;;5132175;28;910;-64
2023/08/29 16:04:13;;;;;;;;;;;;;;;;;;5132214;28;1065;-64
2023/08/29 16:06:38;;;;;;;;;;;;;;;;;;5131178;28;946;-64
2023/08/29 16:09:07;;;;;;;;;;;;;;;;;;5113416;28;789;-65
2023/08/29 16:11:32;;;;;;;;;;;;;;;;;;5114537;28;899;-64
2023/08/29 16:13:58;;;;;;;;;;;;;;;;;;5113074;28;927;-64
2023/08/29 16:16:23;;;;;;;;;;;;;;;;;;5112850;28;1955;-64
2023/08/29 16:18:48;;;;;;;;;;;;;;;;;;5130978;28;1161;-64
2023/08/29 16:21:13;;;;;;;;;;;;;;;;;;5131217;28;990;-65
2023/08/29 16:23:39;;;;;;;;;;;;;;;;;;5130570;28;773;-64
2023/08/29 16:26:17;;;;;;;;;;;;;;;;;;5131119;28;1441;-64
2023/08/29 16:28:43;;;;;;;;;;;;;;;;;;5112403;28;884;-64
2023/08/29 16:31:08;;;;;;;;;;;;;;;;;;5130851;28;981;-65
2023/08/29 16:33:34;;;;;;;;;;;;;;;;;;5130963;27;1177;-64
2023/08/29 16:36:00;;;;;;;;;;;;;;;;;;5133981;27;1973;-64
2023/08/29 16:38:26;;;;;;;;;;;;;;;;;;5116397;27;1229;-64
2023/08/29 16:40:52;;;;;;;;;;;;;;;;;;5115872;27;1497;-64
2023/08/29 16:43:17;;;;;;;;;;;;;;;;;;5116002;27;931;-64
2023/08/29 16:45:43;;;;;;;;;;;;;;;;;;5138560;27;1225;-64
2023/08/29 16:48:08;;;;;;;;;;;;;;;;;;5149336;27;1158;-64
2023/08/29 16:50:33;;;;;;;;;;;;;;;;;;5147136;27;1150;-64
2023/08/29 16:52:58;;;;;;;;;;;;;;;;;;5131586;27;1139;-64
2023/08/29 16:55:24;;;;;;;;;;;;;;;;;;5129484;27;1947;-64
2023/08/29 16:57:49;;;;;;;;;;;;;;;;;;5136624;27;1154;-64
2023/08/29 17:00:14;;;;;;;;;;;;;;;;;;5131556;27;1194;-64
2023/08/29 17:02:43;;;;;;;;;;;;;;;;;;5154036;27;1209;-64
2023/08/29 17:05:08;;;;;;;;;;;;;;;;;;5136612;27;949;-65